createdAt,value
2018-09-06T00:00:38.112Z,44.10
2018-09-06T00:03:06.480Z,44.48
2018-09-06T00:05:34.982Z,44.41
2018-09-06T00:08:03.610Z,43.39
2018-09-06T00:10:31.918Z,45.44
2018-09-06T00:13:00.328Z,43.58
2018-09-06T00:15:28.700Z,44.13
2018-09-06T00:17:57.119Z,45.31
2018-09-06T00:20:25.474Z,43.78
2018-09-06T00:22:53.929Z,45.16
2018-09-06T00:25:22.333Z,45.94
2018-09-06T00:27:50.756Z,45.11
2018-09-06T00:30:19.157Z,45.03
2018-09-06T00:32:47.593Z,44.90
2018-09-06T00:35:16.023Z,43.81
2018-09-06T00:37:44.440Z,43.69
2018-09-06T00:40:13.000Z,42.42
2018-09-06T00:42:41.868Z,43.19
2018-09-06T00:45:10.313Z,44.25
2018-09-06T00:47:38.765Z,43.61
2018-09-06T00:50:13.891Z,42.49
2018-09-06T00:52:42.263Z,45.25
2018-09-06T00:55:10.642Z,45.85
2018-09-06T00:57:38.967Z,44.25
2018-09-06T01:00:07.447Z,43.36
2018-09-06T01:02:35.820Z,43.21
2018-09-06T01:05:04.182Z,43.31
2018-09-06T01:07:32.559Z,44.46
2018-09-06T01:10:00.950Z,43.81
2018-09-06T01:12:29.534Z,44.45
2018-09-06T01:14:57.939Z,44.05
2018-09-06T01:17:26.305Z,41.97
2018-09-06T01:19:54.642Z,42.34
2018-09-06T01:22:22.996Z,42.22
2018-09-06T01:24:51.348Z,44.47
2018-09-06T01:27:19.666Z,43.93
2018-09-06T01:29:48.022Z,42.93
2018-09-06T01:32:16.399Z,43.91
2018-09-06T01:34:44.750Z,43.88
2018-09-06T01:37:13.251Z,41.66
2018-09-06T01:39:41.707Z,43.67
2018-09-06T01:42:10.109Z,43.07
2018-09-06T01:44:38.477Z,41.74
2018-09-06T01:47:06.938Z,42.97
2018-09-06T01:49:35.360Z,41.10
2018-09-06T01:52:03.772Z,41.85
2018-09-06T01:54:32.147Z,41.57
2018-09-06T01:57:07.023Z,42.91
2018-09-06T01:59:36.767Z,43.75
2018-09-06T02:02:05.166Z,42.02
2018-09-06T02:04:33.467Z,42.52
2018-09-06T02:07:01.842Z,41.83
2018-09-06T02:09:30.106Z,42.07
2018-09-06T02:11:58.372Z,43.88
2018-09-06T02:14:26.741Z,42.72
2018-09-06T02:16:55.072Z,42.42
2018-09-06T02:19:23.502Z,42.57
2018-09-06T02:21:51.866Z,43.97
2018-09-06T02:24:20.361Z,41.97
2018-09-06T02:26:49.048Z,41.65
2018-09-06T02:29:17.458Z,41.72
2018-09-06T02:31:45.858Z,42.98
2018-09-06T02:34:14.304Z,42.69
2018-09-06T02:36:42.694Z,41.28
2018-09-06T02:39:11.686Z,43.32
2018-09-06T02:41:40.058Z,43.58
2018-09-06T02:44:08.994Z,42.92
2018-09-06T02:46:37.535Z,42.12
2018-09-06T02:49:05.979Z,43.21
2018-09-06T02:51:34.335Z,42.81
2018-09-06T02:54:02.741Z,41.58
2018-09-06T02:56:30.978Z,41.86
2018-09-06T02:58:59.290Z,41.76
2018-09-06T03:01:27.688Z,41.89
2018-09-06T03:03:56.004Z,42.62
2018-09-06T03:06:24.403Z,42.03
2018-09-06T03:08:52.768Z,41.65
2018-09-06T03:11:26.215Z,40.78
2018-09-06T03:13:54.502Z,42.08
2018-09-06T03:16:22.932Z,41.91
2018-09-06T03:18:51.205Z,43.16
2018-09-06T03:21:19.991Z,39.35
2018-09-06T03:23:48.250Z,40.25
2018-09-06T03:26:17.107Z,40.57
2018-09-06T03:28:46.082Z,40.89
2018-09-06T03:31:14.983Z,41.45
2018-09-06T03:33:43.454Z,39.85
2018-09-06T03:36:11.875Z,40.58
2018-09-06T03:38:40.190Z,39.03
2018-09-06T03:41:08.487Z,39.03
2018-09-06T03:43:36.739Z,40.78
2018-09-06T03:46:06.404Z,39.39
2018-09-06T03:48:34.667Z,38.30
2018-09-06T03:51:03.063Z,39.68
2018-09-06T03:53:31.320Z,39.18
2018-09-06T03:55:59.570Z,39.13
2018-09-06T03:58:27.842Z,40.01
2018-09-06T04:00:56.103Z,40.11
2018-09-06T04:03:24.393Z,40.40
2018-09-06T04:05:52.639Z,39.48
2018-09-06T04:08:20.939Z,39.84
2018-09-06T04:10:49.203Z,40.42
2018-09-06T04:13:17.475Z,39.21
2018-09-06T04:15:45.760Z,39.00
2018-09-06T04:18:14.167Z,39.25
2018-09-06T04:20:42.445Z,40.27
2018-09-06T04:23:10.702Z,39.41
2018-09-06T04:25:38.970Z,39.46
2018-09-06T04:28:07.228Z,40.48
2018-09-06T04:30:35.488Z,39.70
2018-09-06T04:33:03.738Z,50.33
2018-09-06T04:35:32.076Z,57.20
2018-09-06T04:38:00.283Z,60.25
2018-09-06T04:40:28.550Z,61.52
2018-09-06T04:42:57.875Z,61.91
2018-09-06T04:45:26.169Z,60.99
2018-09-06T04:47:54.496Z,61.16
2018-09-06T04:50:22.757Z,62.43
2018-09-06T04:52:51.092Z,60.80
2018-09-06T04:55:19.470Z,61.78
2018-09-06T04:57:47.734Z,62.36
2018-09-06T05:00:16.178Z,61.87
2018-09-06T05:02:44.528Z,61.92
2018-09-06T05:05:12.846Z,61.56
2018-09-06T05:07:41.195Z,60.90
2018-09-06T05:10:09.490Z,61.91
2018-09-06T05:12:37.796Z,58.37
2018-09-06T05:15:06.107Z,57.33
2018-09-06T05:17:34.387Z,57.86
2018-09-06T05:20:02.781Z,58.16
2018-09-06T05:22:31.140Z,57.21
2018-09-06T05:24:59.424Z,57.02
2018-09-06T05:27:27.906Z,56.44
2018-09-06T05:29:56.247Z,57.63
2018-09-06T05:32:24.647Z,57.25
2018-09-06T05:34:52.947Z,56.99
2018-09-06T05:37:21.267Z,57.54
2018-09-06T05:39:49.587Z,56.55
2018-09-06T05:42:18.028Z,57.84
2018-09-06T05:44:46.322Z,58.13
2018-09-06T05:47:14.635Z,58.68
2018-09-06T05:49:42.899Z,56.92
2018-09-06T05:52:11.183Z,60.66
2018-09-06T05:54:39.454Z,61.43
2018-09-06T05:57:07.723Z,59.04
2018-09-06T05:59:36.052Z,58.39
2018-09-06T06:02:04.283Z,55.70
2018-09-06T06:04:32.537Z,55.98
2018-09-06T06:07:00.880Z,56.52
2018-09-06T06:09:29.139Z,55.39
2018-09-06T06:11:57.554Z,55.42
2018-09-06T06:14:26.001Z,54.35
2018-09-06T06:16:54.264Z,54.09
2018-09-06T06:19:22.544Z,54.59
2018-09-06T06:21:50.821Z,54.01
2018-09-06T06:24:19.154Z,52.94
2018-09-06T06:26:47.523Z,52.35
2018-09-06T06:29:15.863Z,51.79
2018-09-06T06:31:44.139Z,52.47
2018-09-06T06:34:12.400Z,52.12
2018-09-06T06:36:40.686Z,51.55
2018-09-06T06:39:10.435Z,51.90
2018-09-06T06:41:38.879Z,51.64
2018-09-06T06:44:07.147Z,51.85
2018-09-06T06:46:35.461Z,52.24
2018-09-06T06:49:05.125Z,52.67
2018-09-06T06:51:33.439Z,51.35
2018-09-06T06:54:01.698Z,52.36
2018-09-06T06:56:30.125Z,52.63
2018-09-06T06:58:58.432Z,51.13
2018-09-06T07:01:26.721Z,50.82
2018-09-06T07:03:54.998Z,50.65
2018-09-06T07:06:23.337Z,50.71
2018-09-06T07:08:51.659Z,49.33
2018-09-06T07:11:19.976Z,48.00
2018-09-06T07:13:48.255Z,48.60
2018-09-06T07:16:16.553Z,48.39
2018-09-06T07:18:44.867Z,47.56
2018-09-06T07:21:13.068Z,47.22
2018-09-06T07:23:41.360Z,47.49
2018-09-06T07:26:09.634Z,47.35
2018-09-06T07:28:37.923Z,48.60
2018-09-06T07:31:06.241Z,48.46
2018-09-06T07:33:34.547Z,50.36
2018-09-06T07:36:02.843Z,49.07
2018-09-06T07:38:31.228Z,49.14
2018-09-06T07:40:59.514Z,47.79
2018-09-06T07:43:27.821Z,47.58
2018-09-06T07:45:56.110Z,47.25
2018-09-06T07:48:24.396Z,46.12
2018-09-06T07:50:52.685Z,44.93
2018-09-06T07:53:20.989Z,46.24
2018-09-06T07:55:49.306Z,45.14
2018-09-06T07:58:17.566Z,44.61
2018-09-06T08:00:45.843Z,46.02
2018-09-06T08:03:14.173Z,44.68
2018-09-06T08:05:42.999Z,43.25
2018-09-06T08:08:11.416Z,40.95
2018-09-06T08:10:39.718Z,38.11
2018-09-06T08:13:08.022Z,37.65
2018-09-06T08:15:36.318Z,37.52
2018-09-06T08:18:04.832Z,37.05
2018-09-06T08:20:33.091Z,36.35
2018-09-06T08:23:01.624Z,37.06
2018-09-06T08:25:30.008Z,36.16
2018-09-06T08:27:58.315Z,36.72
2018-09-06T08:30:26.605Z,34.99
2018-09-06T08:32:54.851Z,33.76
2018-09-06T08:35:23.123Z,32.62
2018-09-06T08:37:51.406Z,34.24
2018-09-06T08:40:19.671Z,35.34
2018-09-06T08:42:48.036Z,36.49
2018-09-06T08:45:17.323Z,34.98
2018-09-06T08:47:45.622Z,34.39
2018-09-06T08:50:13.858Z,34.95
2018-09-06T08:52:42.155Z,33.81
2018-09-06T08:55:10.426Z,35.59
2018-09-06T08:57:38.699Z,35.72
2018-09-06T09:00:07.000Z,35.34
2018-09-06T09:02:35.400Z,36.61
2018-09-06T09:05:03.635Z,37.82
2018-09-06T09:07:31.933Z,37.66
2018-09-06T09:10:00.215Z,37.59
2018-09-06T09:12:28.525Z,37.09
2018-09-06T09:14:56.733Z,36.53
2018-09-06T09:17:25.008Z,35.20
2018-09-06T09:19:53.297Z,34.87
2018-09-06T09:22:21.579Z,33.18
2018-09-06T09:24:49.818Z,33.86
2018-09-06T09:27:18.065Z,33.32
2018-09-06T09:29:46.372Z,34.30
2018-09-06T09:32:14.643Z,32.47
2018-09-06T09:34:42.928Z,33.79
2018-09-06T09:37:11.258Z,34.37
2018-09-06T09:39:39.528Z,33.38
2018-09-06T09:42:07.816Z,33.66
2018-09-06T09:44:36.074Z,31.79
2018-09-06T09:49:31.844Z,32.21
2018-09-06T09:52:00.055Z,30.74
2018-09-06T09:54:28.405Z,30.05
2018-09-06T09:56:57.754Z,31.23
2018-09-06T09:59:26.063Z,31.01
2018-09-06T10:01:59.610Z,30.48
2018-09-06T10:04:33.109Z,31.17
2018-09-06T10:07:06.642Z,31.50
2018-09-06T10:09:34.928Z,32.37
2018-09-06T10:12:03.283Z,31.35
2018-09-06T10:14:31.655Z,33.45
2018-09-06T10:16:59.981Z,33.76
2018-09-06T10:19:28.282Z,33.36
2018-09-06T10:21:56.586Z,34.47
2018-09-06T10:24:24.877Z,33.90
2018-09-06T10:26:53.291Z,34.16
2018-09-06T10:29:21.649Z,34.90
2018-09-06T10:31:49.992Z,33.32
2018-09-06T10:34:18.316Z,35.19
2018-09-06T10:36:46.651Z,35.29
2018-09-06T10:39:15.062Z,35.81
2018-09-06T10:41:43.351Z,35.83
2018-09-06T10:44:11.638Z,36.37
2018-09-06T10:46:39.952Z,37.13
2018-09-06T10:49:08.223Z,36.67
2018-09-06T10:51:36.514Z,37.46
2018-09-06T10:54:04.846Z,37.42
2018-09-06T10:56:33.474Z,38.75
2018-09-06T10:59:01.776Z,37.20
2018-09-06T11:01:30.103Z,38.03
2018-09-06T11:03:58.763Z,37.89
2018-09-06T11:06:27.047Z,39.19
2018-09-06T11:08:55.338Z,38.84
2018-09-06T11:11:23.661Z,39.88
2018-09-06T11:13:52.028Z,39.88
2018-09-06T11:16:20.796Z,39.24
2018-09-06T11:18:49.100Z,40.11
2018-09-06T11:21:17.546Z,41.56
2018-09-06T11:23:45.768Z,43.10
2018-09-06T11:26:14.110Z,43.72
2018-09-06T11:28:42.627Z,43.80
2018-09-06T11:31:11.048Z,44.62
2018-09-06T11:33:39.481Z,46.40
2018-09-06T11:36:07.918Z,46.33
2018-09-06T11:38:44.418Z,46.74
2018-09-06T11:41:12.738Z,50.19
2018-09-06T11:43:41.050Z,52.63
2018-09-06T11:46:09.405Z,55.33
2018-09-06T11:48:37.661Z,59.75
2018-09-06T11:51:06.563Z,60.86
2018-09-06T11:53:34.832Z,63.62
2018-09-06T11:56:03.113Z,64.79
2018-09-06T11:58:31.368Z,65.96
2018-09-06T12:00:59.653Z,67.82
2018-09-06T12:03:27.918Z,67.04
2018-09-06T12:05:56.178Z,67.86
2018-09-06T12:08:24.466Z,65.59
2018-09-06T12:10:52.766Z,65.90
2018-09-06T12:13:21.057Z,68.25
2018-09-06T12:15:49.319Z,67.63
2018-09-06T12:18:17.568Z,67.23
2018-09-06T12:20:45.815Z,67.32
2018-09-06T12:23:14.082Z,69.32
2018-09-06T12:25:42.436Z,68.27
2018-09-06T12:28:10.656Z,69.94
2018-09-06T12:30:39.024Z,68.65
2018-09-06T12:33:07.305Z,69.45
2018-09-06T12:35:35.605Z,70.38
2018-09-06T12:38:03.917Z,69.25
2018-09-06T12:40:32.229Z,73.43
2018-09-06T12:43:00.550Z,73.01
2018-09-06T12:45:28.860Z,71.50
2018-09-06T12:47:57.154Z,67.75
2018-09-06T12:50:25.486Z,68.27
2018-09-06T12:52:53.784Z,68.23
2018-09-06T12:55:22.223Z,67.05
2018-09-06T12:57:50.489Z,66.52
2018-09-06T13:00:18.749Z,66.03
2018-09-06T13:02:46.998Z,70.00
2018-09-06T13:05:15.281Z,71.53
2018-09-06T13:07:43.588Z,69.33
2018-09-06T13:10:11.863Z,70.31
2018-09-06T13:12:40.211Z,70.99
2018-09-06T13:15:08.575Z,74.15
2018-09-06T13:17:37.045Z,74.23
2018-09-06T13:20:06.120Z,72.13
2018-09-06T13:22:34.546Z,72.50
2018-09-06T13:25:02.949Z,71.22
2018-09-06T13:27:31.556Z,73.49
2018-09-06T13:29:59.892Z,71.83
2018-09-06T13:32:28.435Z,73.99
2018-09-06T13:34:56.940Z,74.39
2018-09-06T13:37:25.352Z,72.76
2018-09-06T13:39:53.923Z,72.63
2018-09-06T13:42:22.413Z,69.86
2018-09-06T13:44:50.813Z,70.45
2018-09-06T13:47:19.385Z,72.46
2018-09-06T13:49:47.795Z,72.93
2018-09-06T13:52:16.318Z,70.23
2018-09-06T13:54:44.679Z,71.04
2018-09-06T13:57:13.053Z,67.73
2018-09-06T13:59:41.504Z,70.12
2018-09-06T14:02:10.027Z,67.73
2018-09-06T14:04:38.705Z,68.77
2018-09-06T14:07:07.048Z,66.94
2018-09-06T14:09:35.462Z,67.64
2018-09-06T14:12:04.575Z,68.71
2018-09-06T14:14:33.111Z,71.14
2018-09-06T14:17:01.736Z,69.68
2018-09-06T14:19:30.124Z,69.93
2018-09-06T14:21:58.522Z,68.50
2018-09-06T14:24:26.894Z,68.32
2018-09-06T14:26:55.279Z,68.30
2018-09-06T14:29:23.733Z,65.66
2018-09-06T14:31:52.131Z,67.43
2018-09-06T14:34:20.498Z,65.56
2018-09-06T14:36:48.894Z,67.41
2018-09-06T14:39:17.255Z,65.86
2018-09-06T14:41:45.572Z,65.07
2018-09-06T14:44:13.971Z,65.72
2018-09-06T14:46:42.314Z,63.13
2018-09-06T14:49:10.682Z,65.11
2018-09-06T14:51:39.091Z,67.05
2018-09-06T14:54:07.478Z,65.81
2018-09-06T14:56:35.939Z,64.95
2018-09-06T14:59:04.347Z,65.72
2018-09-06T15:01:32.865Z,66.27
2018-09-06T15:04:01.140Z,66.83
2018-09-06T15:06:29.618Z,66.22
2018-09-06T15:08:57.999Z,67.64
2018-09-06T15:11:26.398Z,67.80
2018-09-06T15:13:54.801Z,67.68
2018-09-06T15:16:23.147Z,67.68
2018-09-06T15:18:51.692Z,67.56
2018-09-06T15:21:20.112Z,65.81
2018-09-06T15:23:48.527Z,64.14
2018-09-06T15:26:16.938Z,66.23
2018-09-06T15:28:45.778Z,66.75
2018-09-06T15:31:14.290Z,68.78
2018-09-06T15:33:42.728Z,69.01
2018-09-06T15:36:11.168Z,69.30
2018-09-06T15:38:39.550Z,69.08
2018-09-06T15:41:07.936Z,67.78
2018-09-06T15:43:36.459Z,66.95
2018-09-06T15:46:04.887Z,67.92
2018-09-06T15:48:33.278Z,67.89
2018-09-06T15:51:01.620Z,66.77
2018-09-06T15:53:30.086Z,66.76
2018-09-06T15:55:58.640Z,66.52
2018-09-06T15:58:27.217Z,66.52
2018-09-06T16:00:55.634Z,65.92
2018-09-06T16:03:24.090Z,65.11
2018-09-06T16:05:52.528Z,63.89
2018-09-06T16:08:20.932Z,64.82
2018-09-06T16:10:49.974Z,63.99
2018-09-06T16:13:18.405Z,66.45
2018-09-06T16:15:46.825Z,65.73
2018-09-06T16:18:15.224Z,66.92
2018-09-06T16:20:43.630Z,67.88
2018-09-06T16:23:11.995Z,66.21
2018-09-06T16:25:40.382Z,66.37
2018-09-06T16:28:09.130Z,66.81
2018-09-06T16:30:37.529Z,66.54
2018-09-06T16:33:06.067Z,68.08
2018-09-06T16:35:34.885Z,66.34
2018-09-06T16:38:03.371Z,64.89
2018-09-06T16:40:31.767Z,65.35
2018-09-06T16:43:00.170Z,64.75
2018-09-06T16:45:28.577Z,65.81
2018-09-06T16:47:56.996Z,66.93
2018-09-06T16:50:25.536Z,67.72
2018-09-06T16:52:53.844Z,66.68
2018-09-06T16:55:22.244Z,69.17
2018-09-06T16:57:50.669Z,67.62
2018-09-06T17:00:19.022Z,69.70
2018-09-06T17:02:47.433Z,69.35
2018-09-06T17:05:15.810Z,70.63
2018-09-06T17:07:44.242Z,70.03
2018-09-06T17:10:12.712Z,68.55
2018-09-06T17:12:41.121Z,68.10
2018-09-06T17:15:09.560Z,69.50
2018-09-06T17:17:37.919Z,71.66
2018-09-06T17:20:07.096Z,71.05
2018-09-06T17:22:35.435Z,71.18
2018-09-06T17:25:05.281Z,72.58
2018-09-06T17:27:33.940Z,68.92
2018-09-06T17:30:02.572Z,69.29
2018-09-06T17:32:31.899Z,70.25
2018-09-06T17:35:01.650Z,69.51
2018-09-06T17:37:29.947Z,71.74
2018-09-06T17:39:58.298Z,69.31
2018-09-06T17:42:27.427Z,72.04
2018-09-06T17:44:55.714Z,72.34
2018-09-06T17:47:23.998Z,72.72
2018-09-06T17:49:52.295Z,71.34
2018-09-06T17:52:20.822Z,73.20
2018-09-06T17:54:49.379Z,73.87
2018-09-06T17:57:18.020Z,74.46
2018-09-06T17:59:46.486Z,72.80
2018-09-06T18:02:14.920Z,73.72
2018-09-06T18:04:43.252Z,73.00
2018-09-06T18:07:11.597Z,74.47
2018-09-06T18:12:16.836Z,70.79
2018-09-06T18:14:45.775Z,71.09
2018-09-06T18:17:14.193Z,73.69
2018-09-06T18:19:42.690Z,71.94
2018-09-06T18:22:11.055Z,72.05
2018-09-06T18:24:39.628Z,72.01
2018-09-06T18:27:07.964Z,71.42
2018-09-06T18:29:36.210Z,73.27
2018-09-06T18:32:04.463Z,73.76
2018-09-06T18:34:32.807Z,72.39
2018-09-06T18:37:01.071Z,72.42
2018-09-06T18:39:29.913Z,72.83
2018-09-06T18:41:58.345Z,73.31
2018-09-06T18:44:26.815Z,75.79
2018-09-06T18:46:56.106Z,75.93
2018-09-06T18:49:24.775Z,74.31
2018-09-06T18:51:53.191Z,73.23
2018-09-06T18:54:21.619Z,72.57
2018-09-06T18:56:51.233Z,73.34
2018-09-06T18:59:21.246Z,71.91
2018-09-06T19:01:50.036Z,72.69
2018-09-06T19:04:19.090Z,71.80
2018-09-06T19:09:27.969Z,71.50
2018-09-06T19:11:57.167Z,73.04
2018-09-06T19:14:26.714Z,71.33
2018-09-06T19:16:56.011Z,73.65
2018-09-06T19:19:24.430Z,72.23
2018-09-06T19:21:57.275Z,71.90
2018-09-06T19:24:26.498Z,73.27
2018-09-06T19:26:55.032Z,72.60
2018-09-06T19:29:24.529Z,72.98
2018-09-06T19:31:53.011Z,72.84
2018-09-06T19:34:21.417Z,71.86
2018-09-06T19:36:49.898Z,73.55
2018-09-06T19:39:18.354Z,72.42
2018-09-06T19:41:46.955Z,73.43
2018-09-06T19:44:15.436Z,72.84
2018-09-06T19:46:43.938Z,71.42
2018-09-06T19:49:12.515Z,73.11
2018-09-06T19:51:41.055Z,75.06
2018-09-06T19:54:09.338Z,73.81
2018-09-06T19:56:37.611Z,72.99
2018-09-06T19:59:06.221Z,73.59
2018-09-06T20:01:36.081Z,73.07
2018-09-06T20:04:04.712Z,72.64
2018-09-06T20:06:33.999Z,72.38
2018-09-06T20:09:02.602Z,72.57
2018-09-06T20:11:31.142Z,72.32
2018-09-06T20:13:59.507Z,72.07
2018-09-06T20:16:27.819Z,72.07
2018-09-06T20:18:56.149Z,72.93
2018-09-06T20:21:25.589Z,72.17
2018-09-06T20:23:54.042Z,71.76
2018-09-06T20:26:22.632Z,72.27
2018-09-06T20:28:51.213Z,71.69
2018-09-06T20:31:19.763Z,73.33
2018-09-06T20:33:48.366Z,74.25
2018-09-06T20:36:16.923Z,73.67
2018-09-06T20:38:45.354Z,72.20
2018-09-06T20:41:13.899Z,73.68
2018-09-06T20:43:48.947Z,74.62
2018-09-06T20:46:17.597Z,74.77
2018-09-06T20:48:46.276Z,74.23
2018-09-06T20:51:14.801Z,73.25
2018-09-06T20:53:43.117Z,71.02
2018-09-06T20:56:11.418Z,71.51
2018-09-06T20:58:39.908Z,71.15
2018-09-06T21:01:08.307Z,72.10
2018-09-06T21:03:36.716Z,74.04
2018-09-06T21:06:05.162Z,73.37
2018-09-06T21:08:33.598Z,73.41
2018-09-06T21:11:01.978Z,72.96
2018-09-06T21:13:30.459Z,73.00
2018-09-06T21:15:59.005Z,72.54
2018-09-06T21:18:27.451Z,73.30
2018-09-06T21:20:55.932Z,75.45
2018-09-06T21:23:24.475Z,75.57
2018-09-06T21:25:52.855Z,74.28
2018-09-06T21:28:21.300Z,72.61
2018-09-06T21:30:49.706Z,73.50
2018-09-06T21:33:17.983Z,74.06
2018-09-06T21:35:46.258Z,72.06
2018-09-06T21:38:14.635Z,71.71
2018-09-06T21:40:42.922Z,72.29
2018-09-06T21:43:11.195Z,74.28
2018-09-06T21:45:39.467Z,74.35
2018-09-06T21:48:07.747Z,74.68
2018-09-06T21:50:36.039Z,74.56
2018-09-06T21:53:04.474Z,72.27
2018-09-06T21:55:32.903Z,73.97
2018-09-06T21:58:01.331Z,74.19
2018-09-06T22:00:29.794Z,75.91
2018-09-06T22:03:04.177Z,73.83
2018-09-06T22:05:32.526Z,74.67
2018-09-06T22:08:00.835Z,76.56
2018-09-06T22:10:29.139Z,76.51
2018-09-06T22:12:57.405Z,73.11
2018-09-06T22:15:25.690Z,73.58
2018-09-06T22:17:53.972Z,73.63
2018-09-06T22:20:22.265Z,73.12
2018-09-06T22:22:50.559Z,74.01
2018-09-06T22:25:18.854Z,74.80
2018-09-06T22:27:47.135Z,75.34
2018-09-06T22:30:15.420Z,75.58
2018-09-06T22:32:43.691Z,74.18
2018-09-06T22:35:11.979Z,73.48
2018-09-06T22:37:40.274Z,71.95
2018-09-06T22:40:08.538Z,74.15
2018-09-06T22:42:36.814Z,71.22
2018-09-06T22:45:05.080Z,70.93
2018-09-06T22:47:33.348Z,72.66
2018-09-06T22:50:01.648Z,72.69
2018-09-06T22:52:29.934Z,73.46
2018-09-06T22:54:58.220Z,74.10
2018-09-06T22:57:26.478Z,74.03
2018-09-06T22:59:54.735Z,72.60
2018-09-06T23:02:23.007Z,72.91
2018-09-06T23:04:51.452Z,74.72
2018-09-06T23:07:19.780Z,75.61
2018-09-06T23:09:48.194Z,72.75
2018-09-06T23:12:16.786Z,73.37
2018-09-06T23:14:50.168Z,74.77
2018-09-06T23:17:18.459Z,74.98
2018-09-06T23:20:01.695Z,73.33
2018-09-06T23:22:38.844Z,75.15
2018-09-06T23:25:08.585Z,72.48
2018-09-06T23:27:36.882Z,72.85
2018-09-06T23:30:06.590Z,72.84
2018-09-06T23:32:35.082Z,72.32
2018-09-06T23:35:03.389Z,73.86
2018-09-06T23:37:31.769Z,71.75
2018-09-06T23:40:01.015Z,73.30
2018-09-06T23:42:29.290Z,74.45
2018-09-06T23:45:04.255Z,72.97
2018-09-06T23:47:34.542Z,73.53
2018-09-06T23:50:03.240Z,73.43
2018-09-06T23:52:32.579Z,72.85
2018-09-06T23:55:00.911Z,73.68
2018-09-06T23:57:42.642Z,73.47
